»·PEaware :: AAL454 KDEN-KASE

AAL454 :: KDEN-KASE

FLIGHT INFORMATION

Flight Status: Arrived
Operator:
American Airlines
More flights by this operator :: More flights under this callsign
Pilot: Sergei F. (8485)
Aircraft: AIRBUS A320
(A320)
More flights by this aircraft type
Origin: KDEN Denver Intl
United States
Destination: KASE Aspen-Pitkin Co/Sardy
United States
More flights between these airports :: More routes between these airports
Route: +ROCKI3 DBL
File this flight plan on PilotEdge
Remarks:
Altitude:
(Current/Filed)
18,000ft
Speed:
(Current/Filed)
300kts
Departed: 28-Apr-18 08:18 PM
Arrived: 28-Apr-18 08:44 PM
Distance/Time
Traveled:
109nm/0:26
Distance/Time
To Go:
Arrived

Flight Plot

Page will automatically refresh every two minutes.


Map Options




Map Legend


Flown Route
Filed Route
Departure Airport
Arrival Airport
Navaid (VOR, NDB)
Fix

Horizontal Profiles

Position Reports

Time Latitude Longitude Heading Altitude Ground
Speed
28-Apr-18 19:59 39.853243 -104.669946 359 5406ft 0kts
28-Apr-18 20:00 39.853243 -104.669946 359 5406ft 0kts
28-Apr-18 20:01 39.853243 -104.669946 359 5406ft 0kts
28-Apr-18 20:02 39.853243 -104.669946 359 5406ft 0kts
28-Apr-18 20:03 39.853243 -104.669946 359 5406ft 0kts
28-Apr-18 20:04 39.853243 -104.669946 359 5406ft 0kts
28-Apr-18 20:05 39.853243 -104.669946 359 5406ft 0kts
28-Apr-18 20:06 39.853243 -104.669946 359 5406ft 0kts
28-Apr-18 20:07 39.853152 -104.669946 0 5405ft 2kts
28-Apr-18 20:08 39.852642 -104.670269 61 5403ft 2kts
28-Apr-18 20:09 39.852579 -104.670649 90 5402ft 0kts
28-Apr-18 20:10 39.852585 -104.670570 77 5402ft 2kts
28-Apr-18 20:11 39.852713 -104.667055 89 5410ft 11kts
28-Apr-18 20:12 39.853199 -104.663543 22 5418ft 9kts
28-Apr-18 20:13 39.856868 -104.663470 359 5429ft 11kts
28-Apr-18 20:14 39.860453 -104.663427 1 5425ft 8kts
28-Apr-18 20:15 39.860993 -104.661471 90 5420ft 8kts
28-Apr-18 20:16 39.859742 -104.660176 179 5417ft 32kts
28-Apr-18 20:17 39.824343 -104.661966 190 6695ft 164kts
28-Apr-18 20:18 39.777240 -104.688440 238 8205ft 233kts
28-Apr-18 20:19 39.759630 -104.782120 265 9847ft 295kts
28-Apr-18 20:20 39.754120 -104.892193 262 10914ft 339kts
28-Apr-18 20:21 39.745722 -105.019475 262 11802ft 395kts
28-Apr-18 20:22 39.735528 -105.166097 263 13080ft 421kts
28-Apr-18 20:23 39.724724 -105.317527 263 14740ft 430kts
28-Apr-18 20:24 39.713486 -105.472389 263 16258ft 438kts
28-Apr-18 20:25 39.701845 -105.629891 263 17641ft 445kts
28-Apr-18 20:26 39.675381 -105.780959 253 18125ft 442kts
28-Apr-18 20:27 39.653320 -105.887428 253 18183ft 443kts
28-Apr-18 20:28 39.626083 -106.018317 253 18190ft 433kts
28-Apr-18 20:29 39.597290 -106.155613 253 18139ft 389kts
28-Apr-18 20:30 39.571012 -106.280378 253 17217ft 354kts
28-Apr-18 20:31 39.542711 -106.413860 253 16363ft 311kts
28-Apr-18 20:32 39.520535 -106.517910 253 15963ft 293kts
28-Apr-18 20:33 39.499462 -106.616340 253 15252ft 280kts
28-Apr-18 20:34 39.483402 -106.691077 252 14961ft 255kts
28-Apr-18 20:35 39.465029 -106.776167 252 14255ft 238kts
28-Apr-18 20:36 39.447797 -106.855833 250 13938ft 211kts
28-Apr-18 20:37 39.429587 -106.920732 239 13885ft 187kts
28-Apr-18 20:38 39.393890 -106.951082 161 12484ft 162kts
28-Apr-18 20:39 39.352217 -106.930869 161 11523ft 161kts
28-Apr-18 20:40 39.310691 -106.909443 163 10422ft 158kts
28-Apr-18 20:41 39.269967 -106.891761 161 8739ft 154kts
28-Apr-18 20:42 39.230409 -106.872336 161 7712ft 146kts
28-Apr-18 20:43 39.216870 -106.865467 91 7795ft 4kts
28-Apr-18 20:44 39.218224 -106.864443 78 7787ft 0kts
28-Apr-18 20:45 39.218225 -106.864442 78 7787ft 0kts
28-Apr-18 20:46 39.218225 -106.864442 78 7787ft 0kts
28-Apr-18 20:47 39.218225 -106.864442 78 7787ft 0kts
28-Apr-18 20:48 39.218225 -106.864442 78 7787ft 0kts
28-Apr-18 20:49 39.218225 -106.864442 78 7787ft 0kts
28-Apr-18 20:50 39.218225 -106.864442 78 7787ft 0kts
28-Apr-18 20:51 39.218225 -106.864442 78 7787ft 0kts
28-Apr-18 20:52 39.218225 -106.864442 78 7787ft 0kts
28-Apr-18 20:53 39.218225 -106.864442 78 7787ft 0kts
28-Apr-18 20:54 39.218225 -106.864442 78 7787ft 0kts
28-Apr-18 20:55 39.218225 -106.864442 78 7787ft 0kts
28-Apr-18 20:56 39.218225 -106.864442 78 7787ft 0kts
28-Apr-18 20:57 39.218225 -106.864442 78 7787ft 0kts

Navigation Log

Ident Type
1. KDEN Airport
2. DEN Navaid
3. CONNR Fix
4. DBL Navaid
5. KASE Airport